sensor_id;sensor_type;location;lat;lon;timestamp;P1;durP1;ratioP1;P2;durP2;ratioP2
76346;SDS011;65171;48.378;10.010;2022-11-20T00:01:21;6.43;;;5.00;;
76346;SDS011;65171;48.378;10.010;2022-11-20T00:03:49;5.27;;;4.77;;
76346;SDS011;65171;48.378;10.010;2022-11-20T00:06:16;5.73;;;4.50;;
76346;SDS011;65171;48.378;10.010;2022-11-20T00:08:43;6.07;;;4.93;;
76346;SDS011;65171;48.378;10.010;2022-11-20T00:11:13;5.10;;;4.60;;
76346;SDS011;65171;48.378;10.010;2022-11-20T00:13:43;5.00;;;4.50;;
76346;SDS011;65171;48.378;10.010;2022-11-20T00:16:11;5.73;;;4.83;;
76346;SDS011;65171;48.378;10.010;2022-11-20T00:18:37;4.97;;;4.47;;
76346;SDS011;65171;48.378;10.010;2022-11-20T00:23:28;5.70;;;4.67;;
76346;SDS011;65171;48.378;10.010;2022-11-20T00:25:53;6.23;;;4.70;;
76346;SDS011;65171;48.378;10.010;2022-11-20T00:28:19;5.47;;;4.80;;
76346;SDS011;65171;48.378;10.010;2022-11-20T00:30:44;5.47;;;4.97;;
76346;SDS011;65171;48.378;10.010;2022-11-20T00:33:09;5.60;;;5.10;;
76346;SDS011;65171;48.378;10.010;2022-11-20T00:35:34;5.50;;;4.80;;
76346;SDS011;65171;48.378;10.010;2022-11-20T00:37:59;6.47;;;4.90;;
76346;SDS011;65171;48.378;10.010;2022-11-20T00:40:25;5.97;;;5.20;;
76346;SDS011;65171;48.378;10.010;2022-11-20T00:42:50;6.17;;;4.67;;
76346;SDS011;65171;48.378;10.010;2022-11-20T00:45:15;5.60;;;4.50;;
76346;SDS011;65171;48.378;10.010;2022-11-20T00:47:40;6.97;;;4.97;;
76346;SDS011;65171;48.378;10.010;2022-11-20T00:50:06;5.57;;;4.77;;
76346;SDS011;65171;48.378;10.010;2022-11-20T00:52:31;5.90;;;5.30;;
76346;SDS011;65171;48.378;10.010;2022-11-20T00:54:56;7.53;;;4.80;;
76346;SDS011;65171;48.378;10.010;2022-11-20T00:57:22;6.27;;;4.80;;
76346;SDS011;65171;48.378;10.010;2022-11-20T00:59:47;5.37;;;4.73;;
76346;SDS011;65171;48.378;10.010;2022-11-20T01:02:12;5.30;;;4.80;;
76346;SDS011;65171;48.378;10.010;2022-11-20T01:04:37;6.37;;;5.00;;
76346;SDS011;65171;48.378;10.010;2022-11-20T01:07:02;6.87;;;5.27;;
76346;SDS011;65171;48.378;10.010;2022-11-20T01:09:28;5.40;;;4.90;;
76346;SDS011;65171;48.378;10.010;2022-11-20T01:11:53;5.40;;;4.90;;
76346;SDS011;65171;48.378;10.010;2022-11-20T01:14:19;6.17;;;5.03;;
76346;SDS011;65171;48.378;10.010;2022-11-20T01:16:46;6.10;;;4.80;;
76346;SDS011;65171;48.378;10.010;2022-11-20T01:19:15;6.33;;;5.20;;
76346;SDS011;65171;48.378;10.010;2022-11-20T01:21:43;5.30;;;4.80;;
76346;SDS011;65171;48.378;10.010;2022-11-20T01:24:10;5.63;;;4.60;;
76346;SDS011;65171;48.378;10.010;2022-11-20T01:26:39;8.33;;;5.73;;
76346;SDS011;65171;48.378;10.010;2022-11-20T01:29:05;6.83;;;5.07;;
76346;SDS011;65171;48.378;10.010;2022-11-20T01:31:32;5.47;;;4.90;;
76346;SDS011;65171;48.378;10.010;2022-11-20T01:34:00;8.17;;;5.40;;
76346;SDS011;65171;48.378;10.010;2022-11-20T01:36:31;6.47;;;5.33;;
76346;SDS011;65171;48.378;10.010;2022-11-20T01:38:58;7.37;;;5.63;;
76346;SDS011;65171;48.378;10.010;2022-11-20T01:41:26;6.30;;;5.23;;
76346;SDS011;65171;48.378;10.010;2022-11-20T01:43:54;5.90;;;5.40;;
76346;SDS011;65171;48.378;10.010;2022-11-20T01:46:19;6.43;;;5.13;;
76346;SDS011;65171;48.378;10.010;2022-11-20T01:48:46;8.20;;;5.40;;
76346;SDS011;65171;48.378;10.010;2022-11-20T01:53:51;5.60;;;4.93;;
76346;SDS011;65171;48.378;10.010;2022-11-20T01:56:20;6.03;;;5.33;;
76346;SDS011;65171;48.378;10.010;2022-11-20T01:58:48;6.07;;;5.00;;
76346;SDS011;65171;48.378;10.010;2022-11-20T02:01:19;5.93;;;5.33;;
76346;SDS011;65171;48.378;10.010;2022-11-20T02:03:45;7.00;;;5.03;;
76346;SDS011;65171;48.378;10.010;2022-11-20T02:08:59;7.30;;;5.90;;
76346;SDS011;65171;48.378;10.010;2022-11-20T02:11:25;6.83;;;5.17;;
76346;SDS011;65171;48.378;10.010;2022-11-20T02:13:50;6.00;;;5.40;;
76346;SDS011;65171;48.378;10.010;2022-11-20T02:16:23;7.57;;;5.70;;
76346;SDS011;65171;48.378;10.010;2022-11-20T02:18:51;6.60;;;5.57;;
76346;SDS011;65171;48.378;10.010;2022-11-20T02:21:21;6.13;;;5.40;;
76346;SDS011;65171;48.378;10.010;2022-11-20T02:26:48;6.70;;;5.37;;
76346;SDS011;65171;48.378;10.010;2022-11-20T02:29:18;6.73;;;5.30;;
76346;SDS011;65171;48.378;10.010;2022-11-20T02:31:48;5.77;;;5.13;;
76346;SDS011;65171;48.378;10.010;2022-11-20T02:34:13;6.63;;;5.77;;
76346;SDS011;65171;48.378;10.010;2022-11-20T02:36:39;7.80;;;5.20;;
76346;SDS011;65171;48.378;10.010;2022-11-20T02:39:07;6.63;;;5.90;;
76346;SDS011;65171;48.378;10.010;2022-11-20T02:41:34;6.33;;;5.73;;
76346;SDS011;65171;48.378;10.010;2022-11-20T02:44:01;6.77;;;6.07;;
76346;SDS011;65171;48.378;10.010;2022-11-20T02:46:27;6.37;;;5.77;;
76346;SDS011;65171;48.378;10.010;2022-11-20T02:48:52;6.37;;;5.50;;
76346;SDS011;65171;48.378;10.010;2022-11-20T02:51:17;6.93;;;5.40;;
76346;SDS011;65171;48.378;10.010;2022-11-20T02:53:42;5.93;;;5.33;;
76346;SDS011;65171;48.378;10.010;2022-11-20T02:56:08;6.77;;;5.63;;
76346;SDS011;65171;48.378;10.010;2022-11-20T02:58:33;7.03;;;5.80;;
76346;SDS011;65171;48.378;10.010;2022-11-20T03:00:58;5.87;;;5.23;;
76346;SDS011;65171;48.378;10.010;2022-11-20T03:03:23;7.13;;;5.77;;
76346;SDS011;65171;48.378;10.010;2022-11-20T03:05:49;7.40;;;5.60;;
76346;SDS011;65171;48.378;10.010;2022-11-20T03:08:14;5.50;;;5.00;;
76346;SDS011;65171;48.378;10.010;2022-11-20T03:10:39;5.83;;;5.10;;
76346;SDS011;65171;48.378;10.010;2022-11-20T03:13:04;6.07;;;5.47;;
76346;SDS011;65171;48.378;10.010;2022-11-20T03:15:30;5.77;;;5.20;;
76346;SDS011;65171;48.378;10.010;2022-11-20T03:17:55;8.07;;;5.30;;
76346;SDS011;65171;48.378;10.010;2022-11-20T03:20:20;6.17;;;5.57;;
76346;SDS011;65171;48.378;10.010;2022-11-20T03:22:46;6.53;;;5.60;;
76346;SDS011;65171;48.378;10.010;2022-11-20T03:25:11;6.30;;;5.70;;
76346;SDS011;65171;48.378;10.010;2022-11-20T03:27:36;6.60;;;5.67;;
76346;SDS011;65171;48.378;10.010;2022-11-20T03:30:02;6.77;;;5.67;;
76346;SDS011;65171;48.378;10.010;2022-11-20T03:32:28;6.23;;;5.63;;
76346;SDS011;65171;48.378;10.010;2022-11-20T03:34:53;6.53;;;5.77;;
76346;SDS011;65171;48.378;10.010;2022-11-20T03:37:18;7.63;;;5.93;;
76346;SDS011;65171;48.378;10.010;2022-11-20T03:39:44;7.20;;;5.97;;
76346;SDS011;65171;48.378;10.010;2022-11-20T03:42:09;6.10;;;5.50;;
76346;SDS011;65171;48.378;10.010;2022-11-20T03:44:34;6.67;;;5.50;;
76346;SDS011;65171;48.378;10.010;2022-11-20T03:46:59;6.13;;;5.53;;
76346;SDS011;65171;48.378;10.010;2022-11-20T03:49:24;8.37;;;5.80;;
76346;SDS011;65171;48.378;10.010;2022-11-20T03:51:50;6.13;;;5.53;;
76346;SDS011;65171;48.378;10.010;2022-11-20T03:54:15;7.17;;;5.43;;
76346;SDS011;65171;48.378;10.010;2022-11-20T03:56:40;6.50;;;5.90;;
76346;SDS011;65171;48.378;10.010;2022-11-20T03:59:05;6.20;;;5.60;;
76346;SDS011;65171;48.378;10.010;2022-11-20T04:01:32;6.90;;;5.70;;
76346;SDS011;65171;48.378;10.010;2022-11-20T04:03:59;6.70;;;6.03;;
76346;SDS011;65171;48.378;10.010;2022-11-20T04:06:35;7.37;;;6.57;;
76346;SDS011;65171;48.378;10.010;2022-11-20T04:09:02;9.83;;;6.90;;
76346;SDS011;65171;48.378;10.010;2022-11-20T04:11:31;9.23;;;7.10;;
76346;SDS011;65171;48.378;10.010;2022-11-20T04:13:58;7.57;;;6.87;;
76346;SDS011;65171;48.378;10.010;2022-11-20T04:16:25;8.40;;;7.07;;
76346;SDS011;65171;48.378;10.010;2022-11-20T04:18:52;8.27;;;7.40;;
76346;SDS011;65171;48.378;10.010;2022-11-20T04:21:18;9.40;;;8.27;;
76346;SDS011;65171;48.378;10.010;2022-11-20T04:23:43;9.53;;;8.30;;
76346;SDS011;65171;48.378;10.010;2022-11-20T04:26:09;9.73;;;8.60;;
76346;SDS011;65171;48.378;10.010;2022-11-20T04:28:36;11.50;;;9.13;;
76346;SDS011;65171;48.378;10.010;2022-11-20T04:31:11;10.00;;;8.70;;
76346;SDS011;65171;48.378;10.010;2022-11-20T04:33:38;11.37;;;9.13;;
76346;SDS011;65171;48.378;10.010;2022-11-20T04:36:25;10.47;;;9.37;;
76346;SDS011;65171;48.378;10.010;2022-11-20T04:38:51;10.13;;;8.97;;
76346;SDS011;65171;48.378;10.010;2022-11-20T04:41:18;12.87;;;9.97;;
76346;SDS011;65171;48.378;10.010;2022-11-20T04:43:48;10.47;;;9.37;;
76346;SDS011;65171;48.378;10.010;2022-11-20T04:46:18;9.47;;;8.50;;
76346;SDS011;65171;48.378;10.010;2022-11-20T04:48:45;9.67;;;8.67;;
76346;SDS011;65171;48.378;10.010;2022-11-20T04:51:11;8.97;;;8.07;;
76346;SDS011;65171;48.378;10.010;2022-11-20T04:53:37;10.80;;;9.67;;
76346;SDS011;65171;48.378;10.010;2022-11-20T04:56:03;9.60;;;8.60;;
76346;SDS011;65171;48.378;10.010;2022-11-20T04:58:33;10.33;;;9.13;;
76346;SDS011;65171;48.378;10.010;2022-11-20T05:01:02;9.23;;;8.33;;
76346;SDS011;65171;48.378;10.010;2022-11-20T05:03:29;9.23;;;8.37;;
76346;SDS011;65171;48.378;10.010;2022-11-20T05:05:54;10.83;;;8.20;;
76346;SDS011;65171;48.378;10.010;2022-11-20T05:08:20;10.53;;;8.37;;
76346;SDS011;65171;48.378;10.010;2022-11-20T05:10:45;9.43;;;7.87;;
76346;SDS011;65171;48.378;10.010;2022-11-20T05:13:10;8.50;;;7.60;;
76346;SDS011;65171;48.378;10.010;2022-11-20T05:15:35;8.37;;;7.50;;
76346;SDS011;65171;48.378;10.010;2022-11-20T05:18:00;8.80;;;7.90;;
76346;SDS011;65171;48.378;10.010;2022-11-20T05:20:26;8.53;;;7.63;;
76346;SDS011;65171;48.378;10.010;2022-11-20T05:22:51;8.37;;;7.57;;
76346;SDS011;65171;48.378;10.010;2022-11-20T05:25:16;8.93;;;8.03;;
76346;SDS011;65171;48.378;10.010;2022-11-20T05:27:41;9.47;;;8.20;;
76346;SDS011;65171;48.378;10.010;2022-11-20T05:30:07;9.73;;;8.83;;
76346;SDS011;65171;48.378;10.010;2022-11-20T05:32:32;9.53;;;8.60;;
76346;SDS011;65171;48.378;10.010;2022-11-20T05:34:58;10.53;;;9.53;;
76346;SDS011;65171;48.378;10.010;2022-11-20T05:37:23;10.37;;;9.37;;
76346;SDS011;65171;48.378;10.010;2022-11-20T05:39:48;10.53;;;9.53;;
76346;SDS011;65171;48.378;10.010;2022-11-20T05:42:14;10.47;;;9.37;;
76346;SDS011;65171;48.378;10.010;2022-11-20T05:44:39;11.63;;;10.33;;
76346;SDS011;65171;48.378;10.010;2022-11-20T05:47:04;11.97;;;10.67;;
76346;SDS011;65171;48.378;10.010;2022-11-20T05:49:30;11.10;;;10.00;;
76346;SDS011;65171;48.378;10.010;2022-11-20T05:51:55;12.23;;;11.00;;
76346;SDS011;65171;48.378;10.010;2022-11-20T05:54:21;13.70;;;11.43;;
76346;SDS011;65171;48.378;10.010;2022-11-20T05:56:46;12.37;;;11.07;;
76346;SDS011;65171;48.378;10.010;2022-11-20T05:59:11;12.27;;;11.03;;
76346;SDS011;65171;48.378;10.010;2022-11-20T06:01:36;12.83;;;11.53;;
76346;SDS011;65171;48.378;10.010;2022-11-20T06:04:02;12.20;;;11.00;;
76346;SDS011;65171;48.378;10.010;2022-11-20T06:06:27;12.50;;;11.20;;
76346;SDS011;65171;48.378;10.010;2022-11-20T06:08:52;12.40;;;11.13;;
76346;SDS011;65171;48.378;10.010;2022-11-20T06:11:18;12.07;;;10.87;;
76346;SDS011;65171;48.378;10.010;2022-11-20T06:13:44;12.47;;;11.20;;
76346;SDS011;65171;48.378;10.010;2022-11-20T06:16:10;12.67;;;11.37;;
76346;SDS011;65171;48.378;10.010;2022-11-20T06:18:36;12.47;;;11.17;;
76346;SDS011;65171;48.378;10.010;2022-11-20T06:21:06;11.60;;;10.40;;
76346;SDS011;65171;48.378;10.010;2022-11-20T06:23:36;12.27;;;11.07;;
76346;SDS011;65171;48.378;10.010;2022-11-20T06:26:03;13.30;;;11.93;;
76346;SDS011;65171;48.378;10.010;2022-11-20T06:28:32;11.73;;;10.53;;
76346;SDS011;65171;48.378;10.010;2022-11-20T06:30:58;11.63;;;10.43;;
76346;SDS011;65171;48.378;10.010;2022-11-20T06:33:23;11.80;;;10.67;;
76346;SDS011;65171;48.378;10.010;2022-11-20T06:35:49;13.03;;;10.70;;
76346;SDS011;65171;48.378;10.010;2022-11-20T06:38:14;11.47;;;10.30;;
76346;SDS011;65171;48.378;10.010;2022-11-20T06:40:42;11.67;;;10.47;;
76346;SDS011;65171;48.378;10.010;2022-11-20T06:43:09;11.00;;;9.90;;
76346;SDS011;65171;48.378;10.010;2022-11-20T06:45:34;10.50;;;9.40;;
76346;SDS011;65171;48.378;10.010;2022-11-20T06:47:59;10.27;;;9.27;;
76346;SDS011;65171;48.378;10.010;2022-11-20T06:50:24;11.50;;;9.67;;
76346;SDS011;65171;48.378;10.010;2022-11-20T06:52:50;11.97;;;9.03;;
76346;SDS011;65171;48.378;10.010;2022-11-20T06:55:15;10.50;;;9.47;;
76346;SDS011;65171;48.378;10.010;2022-11-20T06:57:40;10.03;;;9.03;;
76346;SDS011;65171;48.378;10.010;2022-11-20T07:00:06;11.33;;;9.63;;
76346;SDS011;65171;48.378;10.010;2022-11-20T07:02:31;10.47;;;9.37;;
76346;SDS011;65171;48.378;10.010;2022-11-20T07:04:56;10.30;;;9.17;;
76346;SDS011;65171;48.378;10.010;2022-11-20T07:07:22;10.83;;;9.40;;
76346;SDS011;65171;48.378;10.010;2022-11-20T07:09:47;10.10;;;9.10;;
76346;SDS011;65171;48.378;10.010;2022-11-20T07:12:12;12.30;;;8.10;;
76346;SDS011;65171;48.378;10.010;2022-11-20T07:14:37;9.83;;;8.93;;
76346;SDS011;65171;48.378;10.010;2022-11-20T07:17:03;9.53;;;8.53;;
76346;SDS011;65171;48.378;10.010;2022-11-20T07:19:28;9.43;;;8.53;;
76346;SDS011;65171;48.378;10.010;2022-11-20T07:21:53;8.80;;;7.90;;
76346;SDS011;65171;48.378;10.010;2022-11-20T07:24:18;10.17;;;8.83;;
76346;SDS011;65171;48.378;10.010;2022-11-20T07:26:45;10.43;;;8.37;;
76346;SDS011;65171;48.378;10.010;2022-11-20T07:29:11;9.23;;;8.27;;
76346;SDS011;65171;48.378;10.010;2022-11-20T07:31:36;9.47;;;8.10;;
76346;SDS011;65171;48.378;10.010;2022-11-20T07:34:02;9.33;;;8.07;;
76346;SDS011;65171;48.378;10.010;2022-11-20T07:36:27;8.80;;;7.90;;
76346;SDS011;65171;48.378;10.010;2022-11-20T07:38:52;8.30;;;7.40;;
76346;SDS011;65171;48.378;10.010;2022-11-20T07:41:17;9.00;;;7.90;;
76346;SDS011;65171;48.378;10.010;2022-11-20T07:43:43;11.53;;;8.63;;
76346;SDS011;65171;48.378;10.010;2022-11-20T07:46:08;8.80;;;7.90;;
76346;SDS011;65171;48.378;10.010;2022-11-20T07:48:33;10.23;;;7.80;;
76346;SDS011;65171;48.378;10.010;2022-11-20T07:50:58;8.10;;;7.30;;
76346;SDS011;65171;48.378;10.010;2022-11-20T07:53:24;8.57;;;7.70;;
76346;SDS011;65171;48.378;10.010;2022-11-20T07:55:49;8.33;;;7.43;;
76346;SDS011;65171;48.378;10.010;2022-11-20T07:58:14;8.90;;;8.00;;
76346;SDS011;65171;48.378;10.010;2022-11-20T08:00:40;9.23;;;7.70;;
76346;SDS011;65171;48.378;10.010;2022-11-20T08:03:06;9.27;;;6.80;;
76346;SDS011;65171;48.378;10.010;2022-11-20T08:05:31;7.67;;;6.80;;
76346;SDS011;65171;48.378;10.010;2022-11-20T08:07:57;9.13;;;7.50;;
76346;SDS011;65171;48.378;10.010;2022-11-20T08:10:22;9.17;;;7.50;;
76346;SDS011;65171;48.378;10.010;2022-11-20T08:12:48;7.80;;;7.00;;
76346;SDS011;65171;48.378;10.010;2022-11-20T08:15:15;9.53;;;6.67;;
76346;SDS011;65171;48.378;10.010;2022-11-20T08:17:40;8.60;;;7.43;;
76346;SDS011;65171;48.378;10.010;2022-11-20T08:20:05;8.27;;;7.10;;
76346;SDS011;65171;48.378;10.010;2022-11-20T08:22:31;7.30;;;6.60;;
76346;SDS011;65171;48.378;10.010;2022-11-20T08:24:56;7.63;;;6.93;;
76346;SDS011;65171;48.378;10.010;2022-11-20T08:27:21;7.37;;;6.67;;
76346;SDS011;65171;48.378;10.010;2022-11-20T08:29:46;7.50;;;6.80;;
76346;SDS011;65171;48.378;10.010;2022-11-20T08:32:12;8.07;;;6.77;;
76346;SDS011;65171;48.378;10.010;2022-11-20T08:34:37;7.93;;;7.03;;
76346;SDS011;65171;48.378;10.010;2022-11-20T08:37:02;8.33;;;6.97;;
76346;SDS011;65171;48.378;10.010;2022-11-20T08:39:28;7.67;;;6.87;;
76346;SDS011;65171;48.378;10.010;2022-11-20T08:41:53;7.23;;;6.37;;
76346;SDS011;65171;48.378;10.010;2022-11-20T08:44:18;8.20;;;6.60;;
76346;SDS011;65171;48.378;10.010;2022-11-20T08:46:43;7.37;;;6.67;;
76346;SDS011;65171;48.378;10.010;2022-11-20T08:49:09;6.97;;;6.27;;
76346;SDS011;65171;48.378;10.010;2022-11-20T08:51:36;7.87;;;6.97;;
76346;SDS011;65171;48.378;10.010;2022-11-20T08:54:02;6.73;;;6.00;;
76346;SDS011;65171;48.378;10.010;2022-11-20T08:56:28;7.43;;;6.60;;
76346;SDS011;65171;48.378;10.010;2022-11-20T08:58:53;6.63;;;6.03;;
76346;SDS011;65171;48.378;10.010;2022-11-20T09:01:18;8.10;;;5.77;;
76346;SDS011;65171;48.378;10.010;2022-11-20T09:03:44;6.33;;;5.73;;
76346;SDS011;65171;48.378;10.010;2022-11-20T09:06:10;7.27;;;6.10;;
76346;SDS011;65171;48.378;10.010;2022-11-20T09:08:35;5.97;;;5.23;;
76346;SDS011;65171;48.378;10.010;2022-11-20T09:11:00;6.70;;;5.80;;
76346;SDS011;65171;48.378;10.010;2022-11-20T09:13:27;6.17;;;5.57;;
76346;SDS011;65171;48.378;10.010;2022-11-20T09:16:02;5.83;;;5.10;;
76346;SDS011;65171;48.378;10.010;2022-11-20T09:18:32;5.80;;;5.20;;
76346;SDS011;65171;48.378;10.010;2022-11-20T09:20:59;6.13;;;5.20;;
76346;SDS011;65171;48.378;10.010;2022-11-20T09:23:25;5.07;;;4.57;;
76346;SDS011;65171;48.378;10.010;2022-11-20T09:25:52;6.10;;;4.80;;
76346;SDS011;65171;48.378;10.010;2022-11-20T09:28:17;5.27;;;4.77;;
76346;SDS011;65171;48.378;10.010;2022-11-20T09:30:43;4.80;;;4.40;;
76346;SDS011;65171;48.378;10.010;2022-11-20T09:33:08;4.40;;;4.00;;
76346;SDS011;65171;48.378;10.010;2022-11-20T09:35:33;5.80;;;4.57;;
76346;SDS011;65171;48.378;10.010;2022-11-20T09:38:03;6.70;;;4.23;;
76346;SDS011;65171;48.378;10.010;2022-11-20T09:40:32;4.80;;;4.30;;
76346;SDS011;65171;48.378;10.010;2022-11-20T09:51:42;4.10;;;3.70;;
76346;SDS011;65171;48.378;10.010;2022-11-20T09:54:18;4.20;;;3.80;;
76346;SDS011;65171;48.378;10.010;2022-11-20T09:56:55;4.27;;;3.70;;
76346;SDS011;65171;48.378;10.010;2022-11-20T10:01:58;3.90;;;3.50;;
76346;SDS011;65171;48.378;10.010;2022-11-20T10:04:25;4.43;;;3.67;;
76346;SDS011;65171;48.378;10.010;2022-11-20T10:09:25;5.53;;;3.40;;
76346;SDS011;65171;48.378;10.010;2022-11-20T10:11:59;3.87;;;3.47;;
76346;SDS011;65171;48.378;10.010;2022-11-20T10:17:15;3.10;;;2.80;;
76346;SDS011;65171;48.378;10.010;2022-11-20T10:25:20;3.57;;;3.00;;
76346;SDS011;65171;48.378;10.010;2022-11-20T10:27:52;3.13;;;2.83;;
76346;SDS011;65171;48.378;10.010;2022-11-20T10:30:20;4.13;;;2.80;;
76346;SDS011;65171;48.378;10.010;2022-11-20T10:32:47;3.00;;;2.70;;
76346;SDS011;65171;48.378;10.010;2022-11-20T10:35:33;3.20;;;2.90;;
76346;SDS011;65171;48.378;10.010;2022-11-20T10:38:05;3.50;;;2.50;;
76346;SDS011;65171;48.378;10.010;2022-11-20T10:40:44;3.73;;;2.40;;
76346;SDS011;65171;48.378;10.010;2022-11-20T10:45:57;2.50;;;2.30;;
76346;SDS011;65171;48.378;10.010;2022-11-20T10:48:27;2.37;;;2.17;;
76346;SDS011;65171;48.378;10.010;2022-11-20T10:53:56;2.30;;;2.10;;
76346;SDS011;65171;48.378;10.010;2022-11-20T10:57:00;2.40;;;2.20;;
76346;SDS011;65171;48.378;10.010;2022-11-20T11:01:49;2.50;;;2.30;;
76346;SDS011;65171;48.378;10.010;2022-11-20T11:04:19;2.93;;;2.37;;
76346;SDS011;65171;48.378;10.010;2022-11-20T11:06:48;2.80;;;2.40;;
76346;SDS011;65171;48.378;10.010;2022-11-20T11:09:18;2.30;;;2.10;;
76346;SDS011;65171;48.378;10.010;2022-11-20T11:11:51;2.80;;;2.23;;
76346;SDS011;65171;48.378;10.010;2022-11-20T11:14:16;3.70;;;2.20;;
76346;SDS011;65171;48.378;10.010;2022-11-20T11:17:17;2.63;;;2.40;;
76346;SDS011;65171;48.378;10.010;2022-11-20T11:19:43;2.70;;;2.30;;
76346;SDS011;65171;48.378;10.010;2022-11-20T11:22:10;2.33;;;2.13;;
76346;SDS011;65171;48.378;10.010;2022-11-20T11:24:51;2.50;;;2.30;;
76346;SDS011;65171;48.378;10.010;2022-11-20T11:27:17;2.50;;;2.30;;
76346;SDS011;65171;48.378;10.010;2022-11-20T11:29:42;2.80;;;2.40;;
76346;SDS011;65171;48.378;10.010;2022-11-20T11:34:36;3.13;;;2.53;;
76346;SDS011;65171;48.378;10.010;2022-11-20T11:37:02;4.10;;;2.67;;
76346;SDS011;65171;48.378;10.010;2022-11-20T11:39:28;2.83;;;2.57;;
76346;SDS011;65171;48.378;10.010;2022-11-20T11:41:55;3.10;;;2.47;;
76346;SDS011;65171;48.378;10.010;2022-11-20T11:46:54;3.10;;;2.60;;
76346;SDS011;65171;48.378;10.010;2022-11-20T11:49:21;3.30;;;2.70;;
76346;SDS011;65171;48.378;10.010;2022-11-20T11:54:23;3.73;;;2.60;;
76346;SDS011;65171;48.378;10.010;2022-11-20T11:56:52;5.13;;;2.53;;
76346;SDS011;65171;48.378;10.010;2022-11-20T11:59:43;3.33;;;2.53;;
76346;SDS011;65171;48.378;10.010;2022-11-20T12:02:13;2.60;;;2.40;;
76346;SDS011;65171;48.378;10.010;2022-11-20T12:05:50;2.77;;;2.33;;
76346;SDS011;65171;48.378;10.010;2022-11-20T12:14:01;2.57;;;2.37;;
76346;SDS011;65171;48.378;10.010;2022-11-20T12:15:58;2.30;;;2.10;;
76346;SDS011;65171;48.378;10.010;2022-11-20T12:18:24;3.63;;;2.47;;
76346;SDS011;65171;48.378;10.010;2022-11-20T12:24:28;2.33;;;2.07;;
76346;SDS011;65171;48.378;10.010;2022-11-20T12:30:06;3.83;;;2.40;;
76346;SDS011;65171;48.378;10.010;2022-11-20T12:35:32;3.33;;;2.30;;
76346;SDS011;65171;48.378;10.010;2022-11-20T12:46:58;2.30;;;2.10;;
76346;SDS011;65171;48.378;10.010;2022-11-20T12:55:35;2.70;;;2.20;;
76346;SDS011;65171;48.378;10.010;2022-11-20T12:57:54;3.23;;;2.00;;
76346;SDS011;65171;48.378;10.010;2022-11-20T13:00:35;2.47;;;2.03;;
76346;SDS011;65171;48.378;10.010;2022-11-20T13:08:38;1.97;;;1.30;;
76346;SDS011;65171;48.378;10.010;2022-11-20T13:16:41;1.77;;;1.50;;
76346;SDS011;65171;48.378;10.010;2022-11-20T13:19:13;1.73;;;1.40;;
76346;SDS011;65171;48.378;10.010;2022-11-20T13:21:44;2.10;;;1.43;;
76346;SDS011;65171;48.378;10.010;2022-11-20T13:26:46;1.20;;;1.10;;
76346;SDS011;65171;48.378;10.010;2022-11-20T13:29:16;2.40;;;1.20;;
76346;SDS011;65171;48.378;10.010;2022-11-20T13:31:43;1.20;;;1.10;;
76346;SDS011;65171;48.378;10.010;2022-11-20T13:34:22;1.30;;;1.20;;
76346;SDS011;65171;48.378;10.010;2022-11-20T13:36:58;1.30;;;1.10;;
76346;SDS011;65171;48.378;10.010;2022-11-20T13:39:31;2.00;;;1.10;;
76346;SDS011;65171;48.378;10.010;2022-11-20T13:41:58;1.63;;;1.10;;
76346;SDS011;65171;48.378;10.010;2022-11-20T13:44:46;2.03;;;1.30;;
76346;SDS011;65171;48.378;10.010;2022-11-20T13:47:25;1.30;;;1.20;;
76346;SDS011;65171;48.378;10.010;2022-11-20T13:49:52;5.17;;;1.40;;
76346;SDS011;65171;48.378;10.010;2022-11-20T13:55:20;1.90;;;1.37;;
76346;SDS011;65171;48.378;10.010;2022-11-20T14:00:20;1.17;;;1.07;;
76346;SDS011;65171;48.378;10.010;2022-11-20T14:05:31;2.00;;;1.20;;
76346;SDS011;65171;48.378;10.010;2022-11-20T14:08:03;2.03;;;1.30;;
76346;SDS011;65171;48.378;10.010;2022-11-20T14:10:31;1.93;;;1.13;;
76346;SDS011;65171;48.378;10.010;2022-11-20T14:12:56;2.00;;;1.17;;
76346;SDS011;65171;48.378;10.010;2022-11-20T14:15:26;2.03;;;1.30;;
76346;SDS011;65171;48.378;10.010;2022-11-20T14:17:56;1.73;;;1.23;;
76346;SDS011;65171;48.378;10.010;2022-11-20T14:20:23;2.50;;;1.20;;
76346;SDS011;65171;48.378;10.010;2022-11-20T14:22:50;3.00;;;1.30;;
76346;SDS011;65171;48.378;10.010;2022-11-20T14:27:41;1.30;;;1.20;;
76346;SDS011;65171;48.378;10.010;2022-11-20T14:32:41;1.30;;;1.20;;
76346;SDS011;65171;48.378;10.010;2022-11-20T14:35:09;1.17;;;1.07;;
76346;SDS011;65171;48.378;10.010;2022-11-20T14:37:42;1.83;;;1.20;;
76346;SDS011;65171;48.378;10.010;2022-11-20T14:43:25;1.80;;;1.17;;
76346;SDS011;65171;48.378;10.010;2022-11-20T14:45:55;2.33;;;1.20;;
76346;SDS011;65171;48.378;10.010;2022-11-20T14:48:30;1.97;;;1.20;;
76346;SDS011;65171;48.378;10.010;2022-11-20T14:50:58;2.67;;;1.20;;
76346;SDS011;65171;48.378;10.010;2022-11-20T14:53:24;1.60;;;1.30;;
76346;SDS011;65171;48.378;10.010;2022-11-20T14:56:00;2.57;;;1.30;;
76346;SDS011;65171;48.378;10.010;2022-11-20T14:58:27;3.33;;;1.20;;
76346;SDS011;65171;48.378;10.010;2022-11-20T15:00:55;1.40;;;1.30;;
76346;SDS011;65171;48.378;10.010;2022-11-20T15:03:35;2.10;;;1.17;;
76346;SDS011;65171;48.378;10.010;2022-11-20T15:06:02;2.07;;;1.40;;
76346;SDS011;65171;48.378;10.010;2022-11-20T15:08:27;1.67;;;1.40;;
76346;SDS011;65171;48.378;10.010;2022-11-20T15:10:53;1.50;;;1.40;;
76346;SDS011;65171;48.378;10.010;2022-11-20T15:13:32;1.90;;;1.40;;
76346;SDS011;65171;48.378;10.010;2022-11-20T15:16:01;2.03;;;1.50;;
76346;SDS011;65171;48.378;10.010;2022-11-20T15:18:28;2.27;;;1.70;;
76346;SDS011;65171;48.378;10.010;2022-11-20T15:20:57;3.87;;;1.70;;
76346;SDS011;65171;48.378;10.010;2022-11-20T15:23:25;2.73;;;1.67;;
76346;SDS011;65171;48.378;10.010;2022-11-20T15:25:51;2.13;;;1.80;;
76346;SDS011;65171;48.378;10.010;2022-11-20T15:28:18;2.80;;;1.60;;
76346;SDS011;65171;48.378;10.010;2022-11-20T15:30:46;2.17;;;1.77;;
76346;SDS011;65171;48.378;10.010;2022-11-20T15:33:12;3.37;;;1.70;;
76346;SDS011;65171;48.378;10.010;2022-11-20T15:35:38;2.60;;;1.40;;
76346;SDS011;65171;48.378;10.010;2022-11-20T15:38:03;3.07;;;1.60;;
76346;SDS011;65171;48.378;10.010;2022-11-20T15:40:29;2.17;;;1.57;;
76346;SDS011;65171;48.378;10.010;2022-11-20T15:42:54;2.50;;;1.60;;
76346;SDS011;65171;48.378;10.010;2022-11-20T15:45:19;1.60;;;1.50;;
76346;SDS011;65171;48.378;10.010;2022-11-20T15:47:44;1.60;;;1.40;;
76346;SDS011;65171;48.378;10.010;2022-11-20T15:50:11;3.50;;;1.70;;
76346;SDS011;65171;48.378;10.010;2022-11-20T15:52:41;1.73;;;1.50;;
76346;SDS011;65171;48.378;10.010;2022-11-20T15:55:10;1.70;;;1.33;;
76346;SDS011;65171;48.378;10.010;2022-11-20T15:57:35;1.60;;;1.50;;
76346;SDS011;65171;48.378;10.010;2022-11-20T16:00:00;1.83;;;1.40;;
76346;SDS011;65171;48.378;10.010;2022-11-20T16:02:26;1.80;;;1.40;;
76346;SDS011;65171;48.378;10.010;2022-11-20T16:04:51;1.70;;;1.60;;
76346;SDS011;65171;48.378;10.010;2022-11-20T16:07:16;2.00;;;1.33;;
76346;SDS011;65171;48.378;10.010;2022-11-20T16:09:41;3.40;;;1.70;;
76346;SDS011;65171;48.378;10.010;2022-11-20T16:12:08;2.33;;;1.80;;
76346;SDS011;65171;48.378;10.010;2022-11-20T16:14:34;2.13;;;1.60;;
76346;SDS011;65171;48.378;10.010;2022-11-20T16:16:59;2.37;;;1.90;;
76346;SDS011;65171;48.378;10.010;2022-11-20T16:19:24;2.80;;;1.90;;
76346;SDS011;65171;48.378;10.010;2022-11-20T16:21:50;2.23;;;1.77;;